Time;durP1;ratioP1;P1;durP2;ratioP2;P2;SDS_P1;SDS_P2;PMS_P1;PMS_P2;Temp;Humidity;BMP_temperature;BMP_pressure;BME280_temperature;BME280_humidity;BME280_pressure;Samples;Min_cycle;Max_cycle;Signal;HPM_P1;HPM_P2
2021/03/26 00:01:31;;;;;;;84.68;46.10;;;;;;;7.54;81.24;101253.28;4996975;28;20045;-69
2021/03/26 00:03:59;;;;;;;99.05;47.17;;;;;;;7.49;81.37;101257.00;5001214;28;20666;-70
2021/03/26 00:06:29;;;;;;;87.10;47.33;;;;;;;7.39;81.77;101256.47;5020118;28;20084;-69
2021/03/26 00:08:58;;;;;;;90.80;45.00;;;;;;;7.30;82.12;101254.19;5036566;28;20076;-69
2021/03/26 00:11:30;;;;;;;88.35;47.53;;;;;;;7.25;82.40;101256.09;5018380;28;20071;-69
2021/03/26 00:13:57;;;;;;;81.63;45.40;;;;;;;7.13;82.52;101257.38;5015679;28;20923;-70
2021/03/26 00:16:25;;;;;;;94.50;48.30;;;;;;;7.02;83.46;101255.13;5007458;28;20491;-70
2021/03/26 00:18:52;;;;;;;82.55;46.65;;;;;;;6.99;84.17;101257.84;5004186;28;20059;-70
2021/03/26 00:21:20;;;;;;;87.22;47.85;;;;;;;6.96;84.08;101260.56;5032933;28;20059;-70
2021/03/26 00:23:47;;;;;;;90.03;46.90;;;;;;;6.88;84.50;101259.97;5005464;28;20132;-70
2021/03/26 00:26:14;;;;;;;96.05;48.20;;;;;;;6.83;84.63;101259.28;5035630;28;20072;-70
2021/03/26 00:28:41;;;;;;;86.18;48.50;;;;;;;6.78;85.09;101256.81;5015550;28;20396;-70
2021/03/26 00:31:07;;;;;;;88.38;47.70;;;;;;;6.80;85.42;101262.84;5024996;28;20049;-69
2021/03/26 00:33:34;;;;;;;93.18;46.53;;;;;;;6.82;85.28;101260.19;5040582;28;20063;-70
2021/03/26 00:36:03;;;;;;;90.25;48.05;;;;;;;6.80;85.50;101257.63;5012173;28;20055;-69
2021/03/26 00:38:30;;;;;;;88.22;45.50;;;;;;;6.77;86.19;101259.47;4989220;28;20136;-68
2021/03/26 00:40:57;;;;;;;88.95;46.80;;;;;;;6.67;86.16;101260.69;5015941;28;21286;-70
2021/03/26 00:43:24;;;;;;;86.00;45.75;;;;;;;6.61;86.71;101266.97;4995320;28;20116;-70
2021/03/26 00:45:51;;;;;;;88.07;44.75;;;;;;;6.62;86.57;101263.47;5011978;28;20057;-69
2021/03/26 00:48:21;;;;;;;98.07;48.40;;;;;;;6.66;86.66;101266.81;5037127;28;20076;-70
2021/03/26 00:50:55;;;;;;;93.35;47.65;;;;;;;6.72;86.76;101257.00;5050889;28;20057;-70
2021/03/26 00:53:26;;;;;;;88.93;46.67;;;;;;;6.74;86.37;101254.34;5027498;28;20053;-70
2021/03/26 00:55:53;;;;;;;90.50;47.70;;;;;;;6.67;86.76;101258.94;5036235;28;20082;-69
2021/03/26 00:58:20;;;;;;;99.70;48.33;;;;;;;6.64;87.01;101251.16;5046415;28;20068;-70
2021/03/26 01:00:47;;;;;;;88.30;48.05;;;;;;;6.55;87.49;101254.94;5004565;28;20137;-70
2021/03/26 01:03:15;;;;;;;95.68;47.38;;;;;;;6.47;87.77;101249.09;5025543;28;20129;-70
2021/03/26 01:05:47;;;;;;;108.50;50.60;;;;;;;6.42;88.31;101247.53;5003147;28;20059;-69
2021/03/26 01:08:14;;;;;;;87.60;47.15;;;;;;;6.36;88.32;101242.50;5026071;28;20052;-70
2021/03/26 01:10:45;;;;;;;91.75;49.88;;;;;;;6.38;88.67;101244.16;5044672;28;20049;-69
2021/03/26 01:13:15;;;;;;;96.68;49.70;;;;;;;6.29;88.68;101242.69;5031034;28;20121;-69
2021/03/26 01:15:44;;;;;;;87.90;47.25;;;;;;;6.22;89.46;101250.78;5038921;28;20048;-70
2021/03/26 01:18:28;;;;;;;92.50;47.78;;;;;;;6.19;89.38;101256.09;5004249;28;20116;-71
2021/03/26 01:20:57;;;;;;;96.85;48.10;;;;;;;6.18;90.17;101251.78;5031322;28;20132;-69
2021/03/26 01:23:26;;;;;;;92.13;48.67;;;;;;;6.27;90.11;101249.72;5029071;28;20060;-70
2021/03/26 01:25:53;;;;;;;88.55;47.88;;;;;;;6.41;89.75;101249.31;5011647;28;20399;-72
2021/03/26 01:28:22;;;;;;;85.63;45.38;;;;;;;6.48;89.33;101245.56;4993818;28;20411;-68
2021/03/26 01:30:49;;;;;;;96.07;48.78;;;;;;;6.57;89.30;101247.03;5015090;28;20049;-70
2021/03/26 01:33:16;;;;;;;86.50;46.45;;;;;;;6.66;88.80;101243.25;4993772;28;20145;-70
2021/03/26 01:36:03;;;;;;;91.05;48.33;;;;;;;6.78;87.92;101245.47;5031859;28;20049;-71
2021/03/26 01:38:30;;;;;;;87.57;45.55;;;;;;;6.88;87.32;101244.25;5009850;28;20149;-70
2021/03/26 01:41:01;;;;;;;87.00;47.05;;;;;;;6.93;86.28;101238.88;5013565;28;20456;-70
2021/03/26 01:43:31;;;;;;;83.63;47.38;;;;;;;7.01;86.04;101248.19;5041149;28;20121;-70
2021/03/26 01:45:59;;;;;;;86.18;44.85;;;;;;;7.20;85.04;101231.81;5016124;28;20058;-70
2021/03/26 01:48:27;;;;;;;93.25;44.80;;;;;;;7.26;84.47;101234.25;5027888;28;20064;-69
2021/03/26 01:50:55;;;;;;;84.38;44.92;;;;;;;7.27;84.51;101238.56;5046485;28;20076;-69
2021/03/26 01:53:23;;;;;;;81.68;45.00;;;;;;;7.27;84.35;101243.81;5027137;28;20077;-69
2021/03/26 01:55:51;;;;;;;92.50;46.83;;;;;;;7.28;84.90;101237.66;5001702;28;20064;-71
2021/03/26 01:58:21;;;;;;;90.65;48.05;;;;;;;7.28;84.55;101235.88;5014694;28;20120;-69
2021/03/26 02:00:52;;;;;;;83.50;45.45;;;;;;;7.30;84.31;101234.09;4997834;28;20137;-70
2021/03/26 02:03:27;;;;;;;84.93;45.17;;;;;;;7.38;84.83;101244.28;5002170;28;20113;-69
2021/03/26 02:05:56;;;;;;;81.53;43.60;;;;;;;7.39;84.56;101232.06;5012333;28;20057;-70
2021/03/26 02:08:34;;;;;;;88.80;45.28;;;;;;;7.39;84.71;101226.81;5028909;28;20475;-70
2021/03/26 02:11:11;;;;;;;80.60;42.78;;;;;;;7.40;84.50;101234.59;5021948;28;20052;-70
2021/03/26 02:13:39;;;;;;;84.97;44.90;;;;;;;7.42;84.38;101227.53;5015095;28;20153;-70
2021/03/26 02:16:07;;;;;;;78.13;44.72;;;;;;;7.45;83.95;101223.97;4983579;28;20611;-70
2021/03/26 02:18:37;;;;;;;79.97;42.38;;;;;;;7.48;84.38;101223.84;5018753;28;20068;-71
2021/03/26 02:21:15;;;;;;;88.00;46.58;;;;;;;7.50;83.86;101224.66;5020709;28;20045;-71
2021/03/26 02:23:43;;;;;;;92.32;45.17;;;;;;;7.54;83.69;101224.47;5014358;28;20049;-70
2021/03/26 02:26:47;;;;;;;86.72;47.15;;;;;;;7.54;83.45;101221.84;5008503;28;20044;-71
2021/03/26 02:29:23;;;;;;;77.95;43.05;;;;;;;7.53;83.07;101225.38;5008018;28;20418;-71
2021/03/26 02:32:28;;;;;;;77.43;44.50;;;;;;;7.49;83.67;101231.66;5024438;28;20129;-71
2021/03/26 02:35:21;;;;;;;82.95;46.08;;;;;;;7.45;83.50;101227.44;4981432;28;20041;-74
2021/03/26 02:37:58;;;;;;;83.13;45.70;;;;;;;7.40;83.79;101229.38;5011217;28;20081;-72
2021/03/26 02:40:31;;;;;;;76.82;42.38;;;;;;;7.33;84.03;101231.34;5012450;28;20055;-70
2021/03/26 02:43:34;;;;;;;77.28;43.67;;;;;;;7.29;84.00;101224.50;4997719;28;20088;-71
2021/03/26 02:46:09;;;;;;;76.25;43.75;;;;;;;7.21;84.36;101234.41;5016125;28;20059;-72
2021/03/26 02:49:01;;;;;;;81.50;44.63;;;;;;;7.15;84.45;101232.00;5007791;28;20059;-71
2021/03/26 02:51:36;;;;;;;83.45;45.47;;;;;;;7.08;85.14;101236.59;5007120;28;20049;-71
2021/03/26 02:54:18;;;;;;;84.78;45.70;;;;;;;6.98;85.06;101240.44;5028381;28;20152;-70
2021/03/26 02:57:02;;;;;;;77.85;44.58;;;;;;;6.97;85.03;101241.34;5020107;28;20060;-71
2021/03/26 02:59:34;;;;;;;88.82;44.78;;;;;;;6.89;85.25;101240.75;5022926;28;20116;-72
2021/03/26 03:02:04;;;;;;;86.47;47.50;;;;;;;6.81;85.73;101238.41;4983165;28;20049;-68
2021/03/26 03:04:41;;;;;;;80.88;44.63;;;;;;;6.77;85.47;101231.53;5029723;28;20054;-70
2021/03/26 03:07:16;;;;;;;91.70;47.67;;;;;;;6.75;85.56;101240.34;4990774;28;20113;-70
2021/03/26 03:09:44;;;;;;;89.90;46.50;;;;;;;6.77;85.70;101234.16;5020238;28;20076;-70
2021/03/26 03:12:19;;;;;;;86.47;46.80;;;;;;;6.79;85.47;101228.88;5028796;28;20415;-70
2021/03/26 03:14:50;;;;;;;80.57;44.20;;;;;;;6.91;85.25;101227.63;5008700;28;20045;-71
2021/03/26 03:17:25;;;;;;;88.05;46.75;;;;;;;6.99;84.83;101231.69;5011578;28;20055;-71
2021/03/26 03:20:05;;;;;;;86.15;45.17;;;;;;;7.07;84.43;101226.19;4992467;23;20046;-71
2021/03/26 03:22:41;;;;;;;82.60;45.72;;;;;;;7.15;83.80;101218.91;4989357;28;20054;-70
2021/03/26 03:25:21;;;;;;;81.65;45.03;;;;;;;7.22;83.65;101228.25;4985471;28;20145;-72
2021/03/26 03:28:10;;;;;;;85.43;44.45;;;;;;;7.29;83.76;101231.50;4998858;28;20052;-71
2021/03/26 03:30:45;;;;;;;77.90;43.65;;;;;;;7.46;83.30;101231.75;4994524;28;20102;-73
2021/03/26 03:33:19;;;;;;;88.80;42.57;;;;;;;7.52;83.16;101239.41;4978648;28;20077;-70
2021/03/26 03:35:49;;;;;;;;;;;;;;;7.47;83.59;101229.97;4995533;28;20469;-70
2021/03/26 03:42:52;;;;;;;85.70;43.38;;;;;;;7.45;82.92;101226.59;4996563;28;20400;-71
2021/03/26 03:45:27;;;;;;;80.80;42.92;;;;;;;7.49;82.67;101222.94;4966862;28;20049;-73
2021/03/26 03:47:57;;;;;;;72.72;43.15;;;;;;;7.55;82.29;101225.31;4975799;28;20061;-71
2021/03/26 03:50:49;;;;;;;81.57;44.78;;;;;;;7.64;81.66;101227.59;4993514;28;20066;-71
2021/03/26 03:53:17;;;;;;;80.38;42.65;;;;;;;7.68;81.26;101217.88;4978989;28;20059;-72
2021/03/26 03:55:58;;;;;;;79.82;42.72;;;;;;;7.71;81.55;101221.25;4982999;28;20045;-72
2021/03/26 03:58:27;;;;;;;74.85;41.65;;;;;;;7.73;81.29;101221.16;4994604;28;20065;-72
2021/03/26 04:01:00;;;;;;;74.32;41.80;;;;;;;7.72;81.28;101211.59;4999619;28;20066;-71
2021/03/26 04:03:35;;;;;;;78.57;43.05;;;;;;;7.74;81.31;101212.38;4977420;28;20053;-73
2021/03/26 04:06:05;;;;;;;74.97;42.15;;;;;;;7.77;80.90;101220.16;4966451;28;20058;-73
2021/03/26 04:08:36;;;;;;;75.78;42.35;;;;;;;7.79;81.15;101216.56;5009419;28;20058;-72
2021/03/26 04:11:20;;;;;;;88.75;43.08;;;;;;;7.83;80.84;101217.28;4972382;28;20540;-71
2021/03/26 04:14:29;;;;;;;79.68;42.90;;;;;;;7.89;80.80;101209.19;5000429;28;20057;-71
2021/03/26 04:17:00;;;;;;;82.65;42.72;;;;;;;7.95;80.36;101218.59;4975063;28;20399;-71
2021/03/26 04:19:34;;;;;;;78.15;42.92;;;;;;;7.99;79.83;101210.53;4976862;28;20069;-71
2021/03/26 04:22:05;;;;;;;69.00;39.97;;;;;;;8.06;79.26;101209.41;4959771;28;20081;-71
2021/03/26 04:24:39;;;;;;;84.07;43.78;;;;;;;8.08;79.56;101214.59;4954856;28;20051;-72
2021/03/26 04:27:13;;;;;;;80.15;43.92;;;;;;;8.05;79.85;101218.16;4987609;28;20046;-70
2021/03/26 04:29:50;;;;;;;81.47;43.05;;;;;;;8.04;79.90;101216.47;4972863;28;20042;-71
2021/03/26 04:32:22;;;;;;;82.35;43.10;;;;;;;8.03;80.60;101214.75;4971583;28;20050;-72
2021/03/26 04:34:51;;;;;;;85.72;44.10;;;;;;;8.04;80.40;101215.63;4980180;28;20053;-71
2021/03/26 04:37:21;;;;;;;79.35;42.20;;;;;;;8.05;80.37;101212.06;4978525;28;20054;-73
2021/03/26 04:39:54;;;;;;;76.68;43.92;;;;;;;8.05;80.63;101214.69;4992763;28;20062;-72
2021/03/26 04:42:32;;;;;;;89.88;45.30;;;;;;;8.05;79.99;101212.91;4958444;28;20050;-72
2021/03/26 04:45:06;;;;;;;80.63;41.28;;;;;;;8.05;79.79;101210.28;4987167;28;20060;-73
2021/03/26 04:47:56;;;;;;;86.68;42.47;;;;;;;8.09;80.05;101211.03;4988322;28;20065;-72
2021/03/26 04:50:28;;;;;;;74.30;40.92;;;;;;;8.05;80.40;101210.28;4977835;28;20145;-71
2021/03/26 04:53:02;;;;;;;73.00;42.00;;;;;;;8.05;80.29;101210.28;4995149;28;20057;-73
2021/03/26 04:55:34;;;;;;;77.63;42.55;;;;;;;8.03;80.67;101206.91;4961690;28;20494;-73
2021/03/26 04:58:18;;;;;;;77.38;43.13;;;;;;;8.05;80.57;101207.66;4961039;28;20058;-71
2021/03/26 05:00:55;;;;;;;83.80;41.63;;;;;;;8.07;80.34;101213.72;4973029;28;20081;-71
2021/03/26 05:03:37;;;;;;;84.53;44.95;;;;;;;8.08;80.25;101218.06;4998875;28;20041;-71
2021/03/26 05:06:18;;;;;;;76.05;42.78;;;;;;;8.13;79.86;101210.00;4941177;28;20051;-71
2021/03/26 05:09:17;;;;;;;77.40;43.20;;;;;;;8.18;80.26;101218.53;4957808;28;20060;-73
2021/03/26 05:11:46;;;;;;;83.20;42.85;;;;;;;8.23;80.03;101218.34;4974807;28;20050;-71
2021/03/26 05:14:21;;;;;;;81.85;42.08;;;;;;;8.24;80.63;101220.94;4980703;28;20062;-73
2021/03/26 05:17:09;;;;;;;79.85;41.85;;;;;;;8.29;80.88;101224.22;4979926;28;20057;-72
2021/03/26 05:19:46;;;;;;;83.22;43.00;;;;;;;8.29;81.36;101231.25;4974119;28;20481;-70
2021/03/26 05:22:27;;;;;;;77.10;41.85;;;;;;;8.35;80.94;101237.09;4997166;28;20129;-71
2021/03/26 05:24:58;;;;;;;85.80;45.80;;;;;;;8.34;82.07;101230.16;4974601;28;20054;-72
2021/03/26 05:27:25;;;;;;;81.43;42.72;;;;;;;8.43;82.48;101238.59;4978454;28;20476;-72
2021/03/26 05:29:52;;;;;;;79.45;43.35;;;;;;;8.35;81.85;101244.13;4992345;28;20061;-72
2021/03/26 05:32:40;;;;;;;76.10;42.38;;;;;;;8.43;82.11;101249.09;4994731;28;20069;-73
2021/03/26 05:35:41;;;;;;;79.40;42.45;;;;;;;8.47;81.97;101256.78;4981014;28;20508;-73
2021/03/26 05:38:13;;;;;;;83.85;44.13;;;;;;;8.46;81.77;101262.06;4974230;28;20122;-72
2021/03/26 05:40:46;;;;;;;78.95;42.10;;;;;;;8.63;80.75;101262.25;4974350;28;20412;-74
2021/03/26 05:43:38;;;;;;;68.80;40.63;;;;;;;8.78;80.64;101264.28;4975847;28;20050;-71
2021/03/26 05:46:29;;;;;;;80.13;42.13;;;;;;;8.57;81.70;101267.75;4998129;28;20415;-72
2021/03/26 05:49:01;;;;;;;82.03;43.28;;;;;;;8.54;83.57;101273.97;4982209;28;20133;-72
2021/03/26 05:51:42;;;;;;;85.93;45.45;;;;;;;8.34;83.92;101266.88;4977379;28;20386;-71
2021/03/26 05:54:22;;;;;;;77.82;42.95;;;;;;;8.18;84.90;101276.25;4993491;28;20137;-73
2021/03/26 05:56:57;;;;;;;86.90;45.15;;;;;;;8.17;86.62;101273.69;4980848;28;20508;-71
2021/03/26 05:59:30;;;;;;;87.55;46.72;;;;;;;8.16;87.19;101270.22;4991662;28;20127;-73
2021/03/26 06:02:25;;;;;;;88.22;47.05;;;;;;;8.15;87.24;101265.91;4978752;28;20401;-73
2021/03/26 06:05:21;;;;;;;87.15;47.92;;;;;;;8.10;88.54;101271.31;4970324;28;20060;-72
2021/03/26 06:08:05;;;;;;;89.32;49.78;;;;;;;8.06;89.20;101264.47;4980511;28;20054;-73
2021/03/26 06:11:10;;;;;;;90.53;49.17;;;;;;;8.01;90.32;101255.91;4971136;28;20078;-73
2021/03/26 06:14:08;;;;;;;87.22;49.28;;;;;;;8.10;90.36;101260.81;4952685;28;20504;-72
2021/03/26 06:16:38;;;;;;;89.22;47.83;;;;;;;8.18;90.11;101259.66;4978699;28;20108;-74
2021/03/26 06:19:21;;;;;;;89.82;50.30;;;;;;;8.20;90.33;101257.84;4974594;28;20073;-73
2021/03/26 06:22:00;;;;;;;94.95;50.75;;;;;;;8.11;92.77;101248.56;4972601;28;20046;-73
2021/03/26 06:25:01;;;;;;;90.78;49.30;;;;;;;8.16;91.15;101253.63;4977475;28;20057;-73
2021/03/26 06:27:38;;;;;;;;;;;;;;;8.13;91.17;101268.56;5004032;28;20434;-74
2021/03/26 06:30:28;;;;;;;91.85;48.33;;;;;;;8.39;90.84;101265.88;4971703;28;19921;-72
2021/03/26 06:33:20;;;;;;;99.43;52.45;;;;;;;8.28;92.85;101255.75;4995976;28;20698;-73
2021/03/26 06:36:34;;;;;;;96.07;50.78;;;;;;;8.19;94.29;101256.97;4994018;28;20425;-74
2021/03/26 06:39:09;;;;;;;99.03;51.80;;;;;;;8.22;95.43;101258.63;4977217;28;20180;-72
2021/03/26 06:41:53;;;;;;;92.15;48.72;;;;;;;8.35;92.96;101257.22;4997306;28;20047;-73
2021/03/26 06:44:45;;;;;;;98.28;53.28;;;;;;;8.45;93.61;101258.59;4970068;28;20081;-73
2021/03/26 06:47:35;;;;;;;106.05;51.25;;;;;;;8.46;92.37;101254.19;4991552;28;20058;-73
2021/03/26 06:50:34;;;;;;;90.70;49.60;;;;;;;8.56;90.62;101256.41;4985251;28;20574;-72
2021/03/26 06:53:16;;;;;;;97.00;51.97;;;;;;;8.65;90.15;101260.44;4996213;28;20050;-73
2021/03/26 06:56:02;;;;;;;92.05;50.00;;;;;;;8.73;88.74;101253.06;4997610;28;20062;-72
2021/03/26 06:58:54;;;;;;;92.10;49.22;;;;;;;8.80;88.61;101256.31;4977575;28;20058;-72
2021/03/26 07:01:48;;;;;;;90.57;47.80;;;;;;;8.89;87.02;101258.56;4975315;28;20054;-72
2021/03/26 07:04:42;;;;;;;100.00;49.92;;;;;;;9.02;87.06;101262.38;4999697;28;20060;-72
2021/03/26 07:07:30;;;;;;;101.05;51.92;;;;;;;9.30;87.56;101271.72;4994555;28;20381;-73
2021/03/26 07:10:24;;;;;;;96.88;50.03;;;;;;;9.45;87.15;101270.19;4982403;28;20058;-72
2021/03/26 07:13:12;;;;;;;96.50;48.85;;;;;;;9.71;87.20;101275.13;4985786;28;20050;-74
2021/03/26 07:15:45;;;;;;;93.35;51.60;;;;;;;9.91;86.66;101271.63;4992676;28;20059;-72
2021/03/26 07:18:57;;;;;;;95.30;52.17;;;;;;;10.19;86.43;101275.59;4981713;28;20065;-74
2021/03/26 07:21:50;;;;;;;80.75;49.55;;;;;;;10.29;84.31;101275.13;4988767;28;20538;-73
2021/03/26 07:24:38;;;;;;;94.10;47.30;;;;;;;10.35;81.77;101268.69;4987738;28;20050;-73
2021/03/26 07:27:14;;;;;;;90.10;48.15;;;;;;;10.62;80.14;101271.78;4951678;28;20518;-72
2021/03/26 07:29:52;;;;;;;83.85;46.15;;;;;;;10.69;79.04;101272.34;4975378;28;20058;-71
2021/03/26 07:32:24;;;;;;;81.57;47.83;;;;;;;10.71;77.95;101267.84;4989572;28;20054;-72
2021/03/26 07:35:12;;;;;;;91.35;48.65;;;;;;;10.62;77.98;101266.50;4985417;28;20124;-72
2021/03/26 07:37:59;;;;;;;81.53;45.78;;;;;;;10.79;77.38;101273.59;4987757;28;20058;-71
2021/03/26 07:41:07;;;;;;;82.63;46.47;;;;;;;11.32;75.41;101272.66;4977865;28;20255;-72
2021/03/26 07:43:59;;;;;;;82.95;47.45;;;;;;;11.71;74.47;101272.38;4991984;28;20064;-73
2021/03/26 07:46:41;;;;;;;79.78;45.75;;;;;;;11.76;73.49;101274.75;4974656;28;20059;-74
2021/03/26 07:49:44;;;;;;;80.25;46.10;;;;;;;11.69;72.79;101268.94;4976266;28;20397;-72
2021/03/26 07:52:11;;;;;;;85.32;48.13;;;;;;;11.36;73.55;101276.84;4958015;28;20051;-72
2021/03/26 07:54:49;;;;;;;85.30;47.25;;;;;;;11.14;75.82;101277.09;4998720;28;20520;-73
2021/03/26 07:57:34;;;;;;;81.72;49.20;;;;;;;11.13;74.30;101276.25;4993138;28;20133;-74
2021/03/26 08:00:22;;;;;;;92.68;50.72;;;;;;;11.37;74.20;101273.28;4990037;28;20058;-74
2021/03/26 08:03:02;;;;;;;80.55;46.65;;;;;;;11.57;73.57;101272.22;4976742;28;20129;-73
2021/03/26 08:05:36;;;;;;;83.45;48.85;;;;;;;11.70;73.19;101277.72;4988308;28;20142;-73
2021/03/26 08:08:27;;;;;;;80.00;48.78;;;;;;;11.80;73.04;101276.31;4981186;28;20072;-73
2021/03/26 08:11:03;;;;;;;79.82;48.58;;;;;;;13.38;67.94;101276.16;4999290;28;20067;-74
2021/03/26 08:13:49;;;;;;;75.93;45.17;;;;;;;15.80;58.87;101270.97;4998482;28;20137;-73
2021/03/26 08:16:45;;;;;;;71.60;43.72;;;;;;;18.69;50.86;101268.34;4983345;28;20062;-73
2021/03/26 08:19:24;;;;;;;82.10;44.63;;;;;;;18.85;48.88;101267.03;4994632;28;20373;-73
2021/03/26 08:22:07;;;;;;;70.65;46.65;;;;;;;17.12;52.49;101270.19;4985666;28;20061;-74
2021/03/26 08:25:05;;;;;;;72.05;44.95;;;;;;;16.83;53.61;101270.53;4973674;28;20183;-73
2021/03/26 08:27:33;;;;;;;78.68;48.75;;;;;;;16.18;55.63;101274.41;4976842;28;20046;-75
2021/03/26 08:30:30;;;;;;;78.13;49.25;;;;;;;16.05;56.63;101278.06;4968504;28;20413;-74
2021/03/26 08:33:03;;;;;;;80.05;51.33;;;;;;;16.08;55.83;101273.38;4998360;28;20047;-75
2021/03/26 08:35:40;;;;;;;75.65;50.38;;;;;;;16.98;54.20;101276.53;4994270;28;20056;-74
2021/03/26 08:38:16;;;;;;;71.70;47.80;;;;;;;17.40;52.96;101280.38;4970187;28;20069;-74
2021/03/26 08:40:52;;;;;;;76.22;48.33;;;;;;;17.95;51.59;101284.06;4977405;28;20519;-73
2021/03/26 08:43:20;;;;;;;81.07;50.92;;;;;;;19.02;48.74;101274.50;4994648;28;20042;-73
2021/03/26 08:45:55;;;;;;;74.57;48.40;;;;;;;19.05;46.83;101274.25;4974897;28;20453;-74
2021/03/26 08:48:53;;;;;;;75.80;49.28;;;;;;;19.40;45.76;101275.72;4981125;28;20117;-74
2021/03/26 08:51:27;;;;;;;79.70;50.58;;;;;;;17.81;49.71;101270.16;4980697;28;20057;-74
2021/03/26 08:54:20;;;;;;;79.05;50.28;;;;;;;17.70;50.77;101268.31;4995707;28;20100;-74
2021/03/26 08:56:55;;;;;;;78.85;48.63;;;;;;;17.28;51.81;101269.84;4979818;28;20137;-74
2021/03/26 08:59:25;;;;;;;;;;;;;;;17.62;50.04;101270.75;4993156;28;20535;-73
2021/03/26 09:02:17;;;;;;;79.30;48.67;;;;;;;17.66;50.37;101269.53;4960540;28;20000;-73
2021/03/26 09:05:08;;;;;;;74.18;46.25;;;;;;;17.88;49.24;101271.38;4997065;28;20389;-73
2021/03/26 09:08:13;;;;;;;78.25;49.45;;;;;;;16.53;52.66;101270.16;4981734;28;20129;-73
2021/03/26 09:11:12;;;;;;;74.05;49.60;;;;;;;17.25;50.56;101270.09;4986063;28;20058;-72
2021/03/26 09:13:42;;;;;;;73.32;47.92;;;;;;;17.94;48.97;101270.88;4978446;28;20043;-74
2021/03/26 09:16:16;;;;;;;75.70;47.33;;;;;;;18.10;47.79;101267.81;4974762;28;20038;-72
2021/03/26 09:18:47;;;;;;;79.95;54.55;;;;;;;18.04;48.91;101269.19;4994289;28;20062;-72
2021/03/26 09:21:26;;;;;;;81.75;48.17;;;;;;;18.30;46.31;101259.09;4996992;28;20044;-72
2021/03/26 09:24:05;;;;;;;71.40;46.60;;;;;;;18.06;47.79;101258.41;4977537;28;20142;-74
2021/03/26 09:26:46;;;;;;;72.93;46.35;;;;;;;17.57;47.71;101254.28;4978319;28;20069;-74
2021/03/26 09:29:17;;;;;;;74.65;48.53;;;;;;;17.81;47.26;101249.69;4989583;28;20172;-72
2021/03/26 09:31:52;;;;;;;72.82;48.08;;;;;;;17.14;47.63;101247.78;4950438;28;20476;-72
2021/03/26 09:34:24;;;;;;;67.80;46.35;;;;;;;17.21;47.34;101254.34;4967708;28;20528;-74
2021/03/26 09:37:07;;;;;;;63.38;43.25;;;;;;;17.04;47.41;101246.81;4956188;28;20058;-73
2021/03/26 09:39:34;;;;;;;66.25;41.63;;;;;;;16.76;46.75;101240.06;4962810;28;20088;-73
2021/03/26 09:42:28;;;;;;;66.53;40.65;;;;;;;16.65;47.69;101247.97;4976411;28;20054;-73
2021/03/26 09:45:24;;;;;;;57.80;37.78;;;;;;;17.07;46.18;101241.25;4994681;28;21149;-73
2021/03/26 09:48:14;;;;;;;53.83;36.92;;;;;;;16.76;46.11;101239.22;4990332;28;20046;-74
2021/03/26 09:50:48;;;;;;;67.07;40.60;;;;;;;15.95;48.71;101236.22;4951621;28;20129;-73
2021/03/26 09:53:17;;;;;;;65.93;39.20;;;;;;;15.86;49.01;101239.53;4998658;28;20136;-73
2021/03/26 09:55:45;;;;;;;65.55;40.72;;;;;;;15.97;48.55;101241.41;4975347;28;20055;-74
2021/03/26 09:58:39;;;;;;;62.20;38.92;;;;;;;16.40;47.55;101243.63;4995368;28;20176;-74
2021/03/26 10:01:21;;;;;;;60.70;37.40;;;;;;;16.30;47.01;101229.28;4987186;28;20083;-73
2021/03/26 10:04:01;;;;;;;61.53;37.55;;;;;;;16.15;46.99;101239.25;5022604;23;20049;-75
2021/03/26 10:06:59;;;;;;;55.35;37.08;;;;;;;16.12;47.17;101235.03;4968275;28;20542;-73
2021/03/26 10:12:09;;;;;;;63.20;36.72;;;;;;;16.06;47.76;101235.44;5004011;28;19944;-72
2021/03/26 10:14:42;;;;;;;55.50;34.17;;;;;;;16.35;46.63;101232.50;4977161;28;20030;-73
2021/03/26 10:17:41;;;;;;;59.28;35.10;;;;;;;16.31;47.11;101231.88;4984344;28;20073;-75
2021/03/26 10:20:48;;;;;;;54.35;34.10;;;;;;;16.41;46.93;101224.06;5000414;28;20133;-74
2021/03/26 10:24:03;;;;;;;63.97;36.42;;;;;;;16.29;47.46;101223.13;4972851;28;20047;-70
2021/03/26 10:26:42;;;;;;;58.47;35.25;;;;;;;15.92;48.19;101220.50;4944768;28;20142;-70
2021/03/26 10:29:42;;;;;;;62.15;36.38;;;;;;;16.13;47.04;101215.47;4972199;28;20073;-71
2021/03/26 10:32:16;;;;;;;62.20;36.35;;;;;;;16.09;47.66;101208.66;4977143;28;20069;-71
2021/03/26 10:34:44;;;;;;;60.35;37.10;;;;;;;15.77;48.54;101215.47;4968390;28;20146;-71
2021/03/26 10:37:34;;;;;;;66.70;38.63;;;;;;;16.21;48.06;101206.94;4976481;28;20061;-69
2021/03/26 10:40:42;;;;;;;55.42;35.33;;;;;;;16.58;46.68;101201.56;4955870;28;20157;-70
2021/03/26 10:43:22;;;;;;;57.72;35.63;;;;;;;16.15;47.82;101199.41;4984458;28;20520;-70
2021/03/26 10:46:02;;;;;;;60.85;37.50;;;;;;;16.92;46.59;101197.19;4971428;28;20062;-69
2021/03/26 10:49:04;;;;;;;56.95;36.72;;;;;;;16.78;47.04;101200.06;4981942;28;20512;-69
2021/03/26 10:51:46;;;;;;;54.35;35.40;;;;;;;16.84;46.22;101191.63;4980485;28;20611;-70
2021/03/26 10:54:22;;;;;;;54.55;34.47;;;;;;;16.91;45.94;101196.34;4956314;28;20074;-70
2021/03/26 10:57:16;;;;;;;54.58;35.83;;;;;;;16.44;47.35;101182.16;4991584;28;20050;-69
2021/03/26 10:59:52;;;;;;;54.45;33.78;;;;;;;16.73;46.42;101184.47;4972812;28;20046;-70
2021/03/26 11:02:30;;;;;;;56.25;35.40;;;;;;;16.29;46.85;101182.44;4978168;28;20042;-71
2021/03/26 11:05:19;;;;;;;60.85;34.95;;;;;;;16.39;46.86;101167.50;4977230;28;20084;-72
2021/03/26 11:08:08;;;;;;;54.70;34.38;;;;;;;16.68;46.18;101176.81;4979115;28;20105;-69
2021/03/26 11:10:39;;;;;;;57.72;35.63;;;;;;;16.96;45.54;101174.72;4953743;28;20049;-71
2021/03/26 11:13:11;;;;;;;52.75;32.10;;;;;;;16.67;45.35;101166.28;4958045;28;20085;-70
2021/03/26 11:15:46;;;;;;;55.20;32.58;;;;;;;16.84;45.58;101173.88;4962801;28;20042;-72
2021/03/26 11:18:13;;;;;;;52.67;33.20;;;;;;;17.02;45.09;101166.28;4975152;28;20133;-70
2021/03/26 11:20:44;;;;;;;52.58;32.22;;;;;;;17.13;44.84;101160.97;4992466;28;20062;-71
2021/03/26 11:23:16;;;;;;;54.53;33.28;;;;;;;17.34;43.51;101163.78;4975099;28;20061;-70
2021/03/26 11:25:49;;;;;;;55.72;33.40;;;;;;;17.58;43.36;101157.47;4999607;28;20052;-69
2021/03/26 11:28:50;;;;;;;53.60;32.25;;;;;;;17.71;42.90;101151.03;4943358;28;20057;-71
2021/03/26 11:31:32;;;;;;;60.45;34.45;;;;;;;17.58;43.65;101152.97;4996426;28;20473;-72
2021/03/26 11:34:10;;;;;;;58.63;34.65;;;;;;;17.44;44.13;101150.56;4995910;28;20054;-72
2021/03/26 11:36:49;;;;;;;61.88;32.90;;;;;;;17.24;44.75;101156.63;4978862;28;20053;-69
2021/03/26 11:39:26;;;;;;;57.83;34.97;;;;;;;16.95;44.35;101152.59;4988156;28;20054;-69
2021/03/26 11:42:05;;;;;;;64.63;34.15;;;;;;;17.17;45.46;101156.25;4985299;28;20105;-69
2021/03/26 11:44:52;;;;;;;58.17;32.58;;;;;;;17.06;45.89;101138.47;4967818;28;20493;-70
2021/03/26 11:47:32;;;;;;;55.22;34.95;;;;;;;17.62;44.85;101140.28;4980177;28;20050;-70
2021/03/26 11:50:14;;;;;;;50.65;32.28;;;;;;;17.70;44.69;101129.88;4988752;28;20465;-70
2021/03/26 11:52:45;;;;;;;57.97;36.30;;;;;;;17.95;43.73;101126.06;4966560;28;20050;-71
2021/03/26 11:55:19;;;;;;;51.83;32.65;;;;;;;18.00;42.66;101126.53;4995395;28;20053;-71
2021/03/26 11:57:59;;;;;;;57.33;34.13;;;;;;;18.22;42.60;101117.59;4998684;28;20046;-70
2021/03/26 12:00:29;;;;;;;56.60;33.53;;;;;;;17.96;42.75;101122.41;4969228;28;20133;-69
2021/03/26 12:03:12;;;;;;;59.30;34.72;;;;;;;17.65;43.29;101110.72;4991197;28;20056;-70
2021/03/26 12:06:03;;;;;;;58.58;34.60;;;;;;;17.39;43.84;101120.81;5000007;28;20058;-70
2021/03/26 12:08:58;;;;;;;59.85;34.97;;;;;;;16.50;45.92;101113.56;4986465;28;20050;-70
2021/03/26 12:11:52;;;;;;;64.63;35.58;;;;;;;16.95;44.58;101106.53;4992293;28;20434;-71
2021/03/26 12:14:26;;;;;;;62.45;35.22;;;;;;;17.20;44.68;101101.00;4995433;28;20109;-70
2021/03/26 12:17:06;;;;;;;58.90;33.67;;;;;;;17.60;44.00;101094.28;4963860;28;20095;-71